echo '';

Nearby METAR Reports

 

ENRY - Rygge (nor-Afb), Norway
Distance from station: NV 23km
Oppdatert: 18/09/2018 18:50
Klart
Klart
 Vind fra S
Vind: S 15 km/h
Temperatur: 17°C
Duggpunkt: 13°C
Fuktighet: 77%
Barometer: 1003 hPa
Oversikt: Klart
Visibility: greater than 10 km
2018/09/18 16:50 ENRY 181650Z 18008KT 150V210 CAVOK 17/13 Q1003
ENTO - Torp (civ/Nor-Af, Norway
Distance from station: V 47km
Oppdatert: 18/09/2018 18:50
Klart
Klart
 Vind fra S
Vind: S 26 km/h
Temperatur: 17°C
Duggpunkt: 14°C
Fuktighet: 83%
Barometer: 1003 hPa
Oversikt: Klart
Visibility: greater than 10 km
2018/09/18 16:50 ENTO 181650Z 19014KT CAVOK 17/14 Q1003
 
ENSN - Skien/Geiterygge, Norway
Distance from station: V 87km
Oppdatert: 09/11/2015 09:50
NOT Current
Klart
Klart
 Vind fra SSV
Vind: SSV 19 km/h, Vindkast: 41 km/h
Temperatur: 7°C
Vindkjøling: 4°C
Duggpunkt: 3°C
Fuktighet: 76%
Barometer: 1000 hPa
Oversikt: Klart
Visibility: greater than 10 km
2015/11/09 08:50 ENSN 090850Z 20010G22KT 150V240 CAVOK 07/03 Q1000
ENGM - Oslo/Gardermoen, Norway
Distance from station: 0 107km
Oppdatert: 18/09/2018 18:50
Klart
Klart
 Vind fra SSV
Vind: SSV 19 km/h
Temperatur: 17°C
Duggpunkt: 10°C
Fuktighet: 64%
Barometer: 1003 hPa
Oversikt: Klart
Visibility: greater than 10 km
2018/09/18 16:50 ENGM 181650Z 20010KT CAVOK 17/10 Q1003 NOSIG
 
ENNO - Notodden, Norway
Distance from station: VNV 112km
Oppdatert: 18/09/2018 18:50
Hovedsaklig skyet
Hovedsaklig skyet
 Vind fra Ø
Vind: Ø 13 km/h
Temperatur: 20°C
Duggpunkt: 12°C
Fuktighet: 60%
Barometer: 1000 hPa
Clouds: Hovedsaklig skyet
Visibility: 10 km
Cloud details: Hovedsaklig skyet 1524 m
2018/09/18 16:50 ENNO 181650Z 09007KT 9999 BKN050 20/12 Q1000 WIND MEASURED AT THR30
ESGT - Trollhattan (pvt, Sweden
Distance from station: SØ 125km
Oppdatert: 18/09/2018 18:50
Klart
Klart
 Vind fra SSV
Vind: SSV 26 km/h
Temperatur: 22°C
Duggpunkt: 11°C
Fuktighet: 50%
Barometer: 1005 hPa
Oversikt: Klart
Visibility: greater than 10 km
2018/09/18 16:50 ESGT 181650Z 20014KT CAVOK 22/11 Q1005
 
ESIB - Satenas (swe-Afb, Sweden
Distance from station: SØ 129km
Oppdatert: 18/09/2018 18:50
Klart
Klart
 Vind fra SSV
Vind: SSV 17 km/h
Temperatur: 21°C
Duggpunkt: 13°C
Fuktighet: 60%
Barometer: 1005 hPa
Clouds: Klart
Visibility: 10 km
2018/09/18 16:50 ESIB 181650Z AUTO 20009KT 9999 NCD 21/13 Q1005
ESOK - Karlstad North, Sweden
Distance from station: ØNØ 129km
Oppdatert: 18/09/2018 18:50
Klart
Klart
 Vind fra SSØ
Vind: SSØ 17 km/h
Temperatur: 19°C
Duggpunkt: 11°C
Fuktighet: 60%
Barometer: 1005 hPa
Oversikt: Klart
Visibility: greater than 10 km
2018/09/18 16:50 ESOK 181650Z 15009KT CAVOK 19/11 Q1005
 
ESGP - Goteborg/Save (a, Sweden
Distance from station: SSØ 169km
Oppdatert: 02/01/2017 11:20
NOT Current
Klart
Klart
 Vind fra calm
Vind: Stille
Temperatur: -2°C
Duggpunkt: -4°C
Fuktighet: 86%
Barometer: 1012 hPa
Clouds: Klart
Visibility: 10 km
2017/01/02 10:20 ESGP 021020Z AUTO 00000KT 9999 NCD M02/M04 Q1012
ESGG - Goteborg/Landvet, Sweden
Distance from station: SSØ 188km
Oppdatert: 18/09/2018 18:50
Klart
Klart
 Vind fra S
Vind: S 30 km/h
Temperatur: 21°C
Duggpunkt: 10°C
Fuktighet: 50%
Barometer: 1007 hPa
Oversikt: Klart
Visibility: greater than 10 km
2018/09/18 16:50 ESGG 181650Z 18016KT CAVOK 21/10 Q1007
 
EKSN - Sindal Airport, Denmark
Distance from station: SSV 199km
Oppdatert: 18/09/2018 13:50
NOT Current
Klart
Klart
 Vind fra SSØ
Vind: SSØ 15 km/h
Temperatur: 21°C
Duggpunkt: 15°C
Fuktighet: 69%
Barometer: 1007 hPa
Oversikt: Klart
Visibility: greater than 10 km
2018/09/18 11:50 EKSN 181150Z 16008KT CAVOK 21/15 Q1007
ENCN - Kristiansand/Kje, Norway
Distance from station: VSV 209km
Oppdatert: 18/09/2018 18:50
Lett regn, Yr, Mist, Hovedsaklig skyet
Lett regn, Yr, Mist, Hovedsaklig skyet
 Vind fra SSV
Vind: SSV 35 km/h
Temperatur: 17°C
Duggpunkt: 16°C
Fuktighet: 94%
Barometer: 1002 hPa
Oversikt: Lett regn, Yr, Mist
Clouds: Hovedsaklig skyet
Visibility: 4 km
Cloud details: Few Clouds 183 m
Hovedsaklig skyet 274 m
2018/09/18 16:50 ENCN 181650Z 20019KT 4000 -RADZ BR FEW006 BKN009 17/16 Q1002
 
ENFG - Fagernes/Leirin, Norway
Distance from station: NNV 220km
Oppdatert: 22/04/2018 10:50
NOT Current
Klart
Klart
 Vind fra S
Vind: S 13 km/h
Temperatur: 6°C
Vindkjøling: 3°C
Duggpunkt: -3°C
Fuktighet: 53%
Barometer: 1014 hPa
Oversikt: Klart
Visibility: greater than 10 km
2018/04/22 08:50 ENFG 220850Z 19007KT CAVOK 06/M03 Q1014
ESOE - Orebro (private), Sweden
Distance from station: Ø 225km
Oppdatert: 18/09/2018 18:50
Klart
Klart
 Vind fra SSØ
Vind: SSØ 11 km/h
Temperatur: 20°C
Duggpunkt: 12°C
Fuktighet: 60%
Barometer: 1006 hPa
Oversikt: Klart
Visibility: greater than 10 km
2018/09/18 16:50 ESOE 181650Z 16006KT CAVOK 20/12 Q1006
 
ESGJ - Jonkoping Airpor, Sweden
Distance from station: SØ 238km
Oppdatert: 18/09/2018 18:50
Klart
Klart
 Vind fra S
Vind: S 13 km/h
Temperatur: 21°C
Duggpunkt: 11°C
Fuktighet: 53%
Barometer: 1008 hPa
Oversikt: Klart
Visibility: greater than 10 km
2018/09/18 16:50 ESGJ 181650Z 19007KT CAVOK 21/11 Q1008
EKYT - Alborg, Denmark
Distance from station: SSV 248km
Oppdatert: 18/09/2018 19:18
Hovedsaklig skyet
Hovedsaklig skyet
 Vind fra SSV
Vind: SSV 33 km/h, Vindkast: 54 km/h
Temperatur: 20°C
Duggpunkt: 15°C
Fuktighet: 73%
Barometer: 1006 hPa
Clouds: Hovedsaklig skyet
Visibility: 16 miles
Cloud details: Hovedsaklig skyet 945 m
2018/09/18 17:18 EKYT 181718Z AUTO 21018G29KT 9999NDV BKN031/// 20/15 Q1006 TEMPO 20016G28KT
 
ESCF - Linkoping/Malmen, Sweden
Distance from station: ØSØ 272km
Oppdatert: 18/09/2018 15:50
NOT Current
Klart
Klart
 Vind fra SSV
Vind: SSV 24 km/h
Temperatur: 24°C
Duggpunkt: 10°C
Fuktighet: 41%
Barometer: 1009 hPa
Oversikt: Klart
Visibility: greater than 10 km
2018/09/18 13:50 ESCF 181350Z 20013KT CAVOK 24/10 Q1009
ESSD - Borlange (swe-Af, Sweden
Distance from station: ØNØ 279km
Oppdatert: 18/09/2018 18:50
Klart
Klart
 Vind fra SSV
Vind: SSV 13 km/h
Temperatur: 18°C
Duggpunkt: 11°C
Fuktighet: 64%
Barometer: 1005 hPa
Oversikt: Klart
Visibility: greater than 10 km
2018/09/18 16:50 ESSD 181650Z 21007KT CAVOK 18/11 Q1005
 
ESSL - Linkoping/Saab, Sweden
Distance from station: ØSØ 280km
Oppdatert: 18/09/2018 18:50
Klart
Klart
 Vind fra SSV
Vind: SSV 9 km/h
Temperatur: 23°C
Duggpunkt: 10°C
Fuktighet: 44%
Barometer: 1008 hPa
Oversikt: Klart
Visibility: greater than 10 km
2018/09/18 16:50 ESSL 181650Z 21005KT 170V230 CAVOK 23/10 Q1008
ESMT - Halmstad (swe-Af, Sweden
Distance from station: SSØ 303km
Oppdatert: 18/09/2018 18:50
Klart
Klart
 Vind fra S
Vind: S 24 km/h
Temperatur: 21°C
Duggpunkt: 13°C
Fuktighet: 60%
Barometer: 1008 hPa
Oversikt: Klart
Visibility: greater than 10 km
2018/09/18 16:50 ESMT 181650Z 19013KT CAVOK 21/13 Q1008